Time;durP1;ratioP1;P1;durP2;ratioP2;P2;SDS_P1;SDS_P2;PMS_P1;PMS_P2;Temp;Humidity;BMP_temperature;BMP_pressure;BME280_temperature;BME280_humidity;BME280_pressure;Samples;Min_cycle;Max_cycle;Signal;HPM_P1;HPM_P2
2022/01/22 00:01:04;;;;;;;8.27;3.33;;;;;;;-2.59;64.23;100520.81;5087235;28;20035;-21
2022/01/22 00:03:29;;;;;;;6.20;2.40;;;;;;;-2.66;64.53;100530.88;5087025;28;20039;-22
2022/01/22 00:05:55;;;;;;;5.00;2.85;;;;;;;-2.73;64.66;100543.59;5089781;28;20036;-21
2022/01/22 00:08:20;;;;;;;5.95;2.95;;;;;;;-2.74;64.62;100534.09;5090865;28;20036;-22
2022/01/22 00:10:47;;;;;;;6.45;3.40;;;;;;;-2.73;63.97;100535.78;5090997;28;20077;-22
2022/01/22 00:15:45;;;;;;;8.07;3.22;;;;;;;-2.83;63.66;100527.84;5090946;28;20467;-21
2022/01/22 00:18:11;;;;;;;7.20;2.97;;;;;;;-2.71;63.27;100530.44;5091328;28;20094;-21
2022/01/22 00:20:39;;;;;;;6.10;3.22;;;;;;;-2.72;62.99;100529.59;5090794;28;20031;-21
2022/01/22 00:23:05;;;;;;;6.50;3.13;;;;;;;-2.76;63.57;100506.47;5090506;28;20028;-21
2022/01/22 00:25:31;;;;;;;8.65;3.50;;;;;;;-2.49;62.82;100533.00;5090418;28;20067;-22
2022/01/22 00:27:56;;;;;;;6.03;2.97;;;;;;;-2.81;62.49;100513.84;5090668;28;20028;-22
2022/01/22 00:30:23;;;;;;;5.78;2.92;;;;;;;-2.80;62.60;100515.50;5090999;28;20046;-21
2022/01/22 00:32:49;;;;;;;6.20;2.97;;;;;;;-2.89;62.60;100499.59;5090736;28;20535;-21
2022/01/22 00:35:15;;;;;;;4.45;2.33;;;;;;;-2.72;61.87;100520.94;5090778;28;20032;-21
2022/01/22 00:37:42;;;;;;;5.57;2.75;;;;;;;-2.70;61.82;100532.09;5090478;28;20553;-22
2022/01/22 00:40:10;;;;;;;9.23;3.00;;;;;;;-2.67;61.88;100532.69;5090213;28;20154;-21
2022/01/22 00:42:35;;;;;;;7.82;2.80;;;;;;;-2.55;61.21;100530.06;5090554;28;20020;-21
2022/01/22 00:45:01;;;;;;;8.48;3.05;;;;;;;-2.68;61.71;100524.97;5090407;28;20046;-22
2022/01/22 00:47:26;;;;;;;5.72;2.80;;;;;;;-2.90;62.29;100508.41;5090397;28;20085;-21
2022/01/22 00:49:52;;;;;;;6.68;2.65;;;;;;;-2.98;62.10;100502.97;5090231;28;20193;-21
2022/01/22 00:52:17;;;;;;;3.92;2.08;;;;;;;-3.23;62.22;100472.72;5090124;28;20032;-21
2022/01/22 00:54:43;;;;;;;7.60;3.35;;;;;;;-3.01;62.10;100502.38;5089580;28;20036;-21
2022/01/22 00:57:08;;;;;;;4.72;2.63;;;;;;;-3.19;62.43;100489.78;5089745;28;20032;-21
2022/01/22 00:59:34;;;;;;;5.47;2.60;;;;;;;-3.05;62.18;100488.72;5089689;28;20036;-21
2022/01/22 01:02:00;;;;;;;6.07;2.30;;;;;;;-3.23;62.28;100483.16;5088290;28;20036;-21
2022/01/22 01:04:27;;;;;;;7.95;2.83;;;;;;;-3.14;61.83;100492.06;5089613;28;20024;-21
2022/01/22 01:06:53;;;;;;;10.27;4.03;;;;;;;-3.18;62.34;100488.03;5089781;28;20032;-21
2022/01/22 01:09:18;;;;;;;7.78;2.83;;;;;;;-3.21;62.03;100480.44;5089463;28;20118;-22
2022/01/22 01:11:49;;;;;;;3.90;1.83;;;;;;;-3.22;61.48;100481.41;5089658;28;20392;-21
2022/01/22 01:14:21;;;;;;;3.75;1.83;;;;;;;-3.39;61.79;100447.03;5083592;28;20038;-22
2022/01/22 01:17:57;;;;;;;8.07;2.78;;;;;;;-3.02;61.63;100478.06;5069196;28;20503;-20
2022/01/22 01:33:23;;;;;;;4.55;2.25;;;;;;;-3.10;60.02;100452.56;5069291;28;20516;-21
2022/01/22 01:35:49;;;;;;;2.80;1.67;;;;;;;-3.09;59.34;100451.59;5068697;28;20028;-21
2022/01/22 01:38:17;;;;;;;7.03;2.70;;;;;;;-2.91;58.84;100448.50;5068999;28;20450;-22
2022/01/22 01:40:45;;;;;;;4.68;1.90;;;;;;;-3.04;58.60;100446.03;5068830;28;20036;-21
2022/01/22 01:43:28;;;;;;;7.18;1.58;;;;;;;-3.17;59.05;100409.63;5069043;28;20025;-21
2022/01/22 01:45:54;;;;;;;3.67;1.83;;;;;;;-3.06;58.63;100429.69;5067274;28;20036;-22
2022/01/22 01:48:24;;;;;;;4.70;1.77;;;;;;;-3.05;59.13;100431.31;5068702;28;20484;-21
2022/01/22 01:50:50;;;;;;;3.28;1.70;;;;;;;-3.21;58.48;100428.25;5067363;28;20040;-21
2022/01/22 01:53:27;;;;;;;3.92;1.95;;;;;;;-3.15;58.01;100427.78;5068889;28;20036;-21
2022/01/22 01:58:21;;;;;;;;;;;;;;;-3.11;57.21;100434.41;5069340;28;20519;-21
2022/01/22 02:00:47;;;;;;;2.42;1.40;;;;;;;-3.12;57.38;100430.97;5068915;28;19913;-20
2022/01/22 02:03:12;;;;;;;3.00;1.27;;;;;;;-3.25;56.61;100402.44;5068349;28;20029;-21
2022/01/22 02:05:38;;;;;;;3.97;1.60;;;;;;;-3.28;55.77;100401.84;5068330;28;20408;-21
2022/01/22 02:08:04;;;;;;;8.52;1.73;;;;;;;-3.14;55.78;100425.06;5068194;28;20121;-21
2022/01/22 02:10:33;;;;;;;3.80;1.70;;;;;;;-3.09;55.58;100422.06;5068354;28;20028;-21
2022/01/22 02:23:57;;;;;;;3.50;1.50;;;;;;;-2.87;53.20;100411.56;5067577;28;20047;-21
2022/01/22 02:26:22;;;;;;;3.72;1.58;;;;;;;-3.09;52.84;100380.34;5067541;28;20032;-21
2022/01/22 02:28:50;;;;;;;6.57;2.17;;;;;;;-2.90;53.07;100401.41;5067462;28;20079;-21
2022/01/22 02:31:33;;;;;;;2.95;1.60;;;;;;;-2.93;52.68;100401.63;5067788;28;20423;-20
2022/01/22 02:36:38;;;;;;;3.72;2.10;;;;;;;-2.75;52.48;100422.00;5067636;28;20032;-20
2022/01/22 02:41:38;;;;;;;3.58;1.58;;;;;;;-2.81;52.77;100425.09;5067891;28;20393;-21
2022/01/22 02:44:04;;;;;;;4.22;1.98;;;;;;;-2.90;53.18;100411.84;5067496;28;20035;-21
2022/01/22 02:46:31;;;;;;;4.90;1.75;;;;;;;-2.93;53.31;100422.50;5067412;28;20025;-22
2022/01/22 02:48:57;;;;;;;4.53;1.90;;;;;;;-2.92;53.44;100408.53;5067833;28;20037;-21
2022/01/22 02:51:23;;;;;;;4.13;1.75;;;;;;;-2.87;52.93;100415.97;5067481;28;20052;-21
2022/01/22 02:53:50;;;;;;;2.58;1.65;;;;;;;-2.87;52.96;100416.81;5067440;28;20546;-21
2022/01/22 02:56:16;;;;;;;3.67;1.60;;;;;;;-2.92;52.64;100398.09;5066142;28;20033;-21
2022/01/22 02:58:42;;;;;;;4.97;2.25;;;;;;;-2.75;52.91;100419.38;5067568;28;20056;-21
2022/01/22 03:01:07;;;;;;;3.92;1.48;;;;;;;-2.97;53.71;100395.00;5067545;28;20037;-20
2022/01/22 03:03:33;;;;;;;3.60;1.35;;;;;;;-2.88;53.49;100409.94;5067209;28;20111;-22
2022/01/22 03:06:01;;;;;;;2.65;1.30;;;;;;;-3.11;53.42;100377.03;5067217;28;20135;-21
2022/01/22 03:08:28;;;;;;;5.40;1.40;;;;;;;-2.92;53.45;100400.69;5067467;28;20622;-22
2022/01/22 03:10:54;;;;;;;2.40;1.20;;;;;;;-2.95;52.76;100379.22;5067709;28;20032;-21
2022/01/22 03:16:09;;;;;;;6.50;2.00;;;;;;;-2.70;53.30;100401.56;5067327;28;20480;-22
2022/01/22 03:21:32;;;;;;;3.63;1.90;;;;;;;-2.81;53.85;100399.00;5067407;28;20047;-21
2022/01/22 03:29:33;;;;;;;5.63;1.83;;;;;;;-2.83;53.47;100394.72;5067025;28;20036;-21
2022/01/22 03:31:59;;;;;;;2.88;1.50;;;;;;;-2.93;53.80;100392.97;5065424;28;20085;-21
2022/01/22 03:34:27;;;;;;;6.13;2.13;;;;;;;-2.89;54.15;100391.78;5067189;28;20037;-20
2022/01/22 03:36:52;;;;;;;4.57;1.77;;;;;;;-2.92;54.41;100385.03;5066891;28;20432;-21
2022/01/22 03:39:19;;;;;;;6.00;2.28;;;;;;;-2.89;54.17;100387.38;5068632;28;20025;-20
2022/01/22 03:41:44;;;;;;;3.22;1.45;;;;;;;-2.98;54.15;100375.09;5071084;28;20063;-21
2022/01/22 03:44:11;;;;;;;3.72;1.40;;;;;;;-2.83;53.93;100401.72;5071038;28;20024;-21
2022/01/22 03:46:38;;;;;;;4.45;1.55;;;;;;;-2.89;54.09;100405.66;5071089;28;20043;-21
2022/01/22 03:49:04;;;;;;;5.88;1.83;;;;;;;-2.84;53.81;100416.56;5069658;28;20029;-21
2022/01/22 03:51:30;;;;;;;4.32;1.80;;;;;;;-2.80;53.76;100413.69;5070911;28;20046;-21
2022/01/22 03:53:56;;;;;;;5.38;2.00;;;;;;;-2.88;54.23;100424.75;5070465;28;20029;-21
2022/01/22 03:56:24;;;;;;;3.63;1.90;;;;;;;-2.96;54.20;100391.47;5071098;28;20062;-21
2022/01/22 03:58:49;;;;;;;3.97;1.50;;;;;;;-3.03;54.34;100392.88;5071390;28;20043;-21
2022/01/22 04:03:52;;;;;;;;;;;;;;;-2.77;53.96;100421.28;5071108;28;20085;-23
2022/01/22 04:09:02;;;;;;;3.17;1.65;;;;;;;-2.98;54.08;100382.94;5070747;28;20032;-22
2022/01/22 04:11:30;;;;;;;6.50;2.42;;;;;;;-2.71;53.94;100424.22;5070622;28;20040;-21
2022/01/22 04:14:00;;;;;;;6.05;2.25;;;;;;;-3.00;54.29;100379.59;5070245;28;20028;-21
2022/01/22 04:16:27;;;;;;;5.32;2.13;;;;;;;-2.89;54.55;100408.25;5069073;28;20400;-21
2022/01/22 04:27:13;;;;;;;7.05;2.55;;;;;;;-2.81;55.07;100409.44;5070199;28;20518;-22
2022/01/22 04:29:38;;;;;;;4.78;2.08;;;;;;;-2.87;54.97;100406.34;5070300;28;20032;-22
2022/01/22 04:32:05;;;;;;;4.72;2.28;;;;;;;-3.11;54.83;100366.59;5068735;28;20113;-21
2022/01/22 04:34:30;;;;;;;5.78;2.28;;;;;;;-2.99;55.23;100391.69;5070101;28;20543;-21
2022/01/22 04:36:56;;;;;;;4.78;2.15;;;;;;;-2.93;55.02;100422.50;5070227;28;20025;-21
2022/01/22 04:39:22;;;;;;;5.53;1.77;;;;;;;-3.07;55.13;100378.44;5070082;28;20036;-21
2022/01/22 04:41:49;;;;;;;5.68;1.80;;;;;;;-2.88;55.32;100409.09;5069665;28;20097;-21
2022/01/22 04:44:15;;;;;;;5.00;2.42;;;;;;;-2.89;54.29;100392.59;5068648;28;20173;-22
2022/01/22 04:57:22;;;;;;;6.32;2.60;;;;;;;-2.84;54.09;100403.50;5070066;28;20085;-21
2022/01/22 04:59:48;;;;;;;5.53;2.70;;;;;;;-2.70;53.90;100414.59;5069413;28;20821;-21
2022/01/22 05:02:13;;;;;;;6.95;2.33;;;;;;;-2.75;53.93;100414.16;5068422;28;20032;-21
2022/01/22 05:04:39;;;;;;;9.10;3.13;;;;;;;-2.79;54.21;100413.56;5069182;28;20035;-21
2022/01/22 05:07:04;;;;;;;6.20;2.38;;;;;;;-3.05;54.47;100397.41;5069748;28;20032;-21
2022/01/22 05:09:30;;;;;;;7.38;3.05;;;;;;;-2.93;54.92;100406.84;5069703;28;20472;-21
2022/01/22 05:11:56;;;;;;;4.53;2.22;;;;;;;-3.01;54.68;100411.84;5069254;28;20392;-21
2022/01/22 05:14:23;;;;;;;5.63;3.08;;;;;;;-3.16;54.87;100394.84;5068178;28;20111;-21
2022/01/22 05:16:49;;;;;;;4.72;2.45;;;;;;;-3.15;55.67;100412.13;5069339;28;20059;-21
2022/01/22 05:19:22;;;;;;;5.90;2.45;;;;;;;-3.22;55.30;100406.56;5069217;28;20075;-22
2022/01/22 05:21:50;;;;;;;4.43;2.45;;;;;;;-3.29;55.79;100387.97;5069237;28;20029;-21
2022/01/22 05:24:20;;;;;;;3.95;2.03;;;;;;;-3.36;55.86;100386.78;5069198;28;20098;-21
2022/01/22 05:37:14;;;;;;;17.23;6.82;;;;;;;-3.19;56.07;100402.88;5068899;28;20114;-20
2022/01/22 05:39:40;;;;;;;23.30;9.98;;;;;;;-3.28;56.12;100381.81;5068879;28;20029;-21
2022/01/22 05:42:07;;;;;;;27.35;9.98;;;;;;;-3.04;55.56;100404.28;5068574;28;20028;-22
2022/01/22 05:44:33;;;;;;;23.52;8.52;;;;;;;-3.08;55.11;100401.09;5068843;28;20034;-20
2022/01/22 05:47:03;;;;;;;7.88;3.85;;;;;;;-3.13;55.41;100400.63;5068793;28;20028;-21
2022/01/22 05:49:31;;;;;;;6.10;3.28;;;;;;;-3.15;54.66;100380.81;5068936;28;20036;-20
2022/01/22 05:51:58;;;;;;;8.43;4.20;;;;;;;-3.12;54.15;100396.25;5067098;28;20064;-21
2022/01/22 05:59:52;;;;;;;7.88;3.53;;;;;;;-2.92;53.87;100403.31;5068426;28;20181;-20
2022/01/22 06:02:18;;;;;;;6.43;2.80;;;;;;;-2.93;53.59;100406.84;5067602;28;20040;-21
2022/01/22 06:04:44;;;;;;;8.65;3.50;;;;;;;-2.83;53.78;100402.56;5050437;28;20033;-21
2022/01/22 06:07:09;;;;;;;4.90;2.47;;;;;;;-2.92;53.19;100392.88;5066914;28;20077;-21
2022/01/22 06:09:38;;;;;;;5.50;3.55;;;;;;;-2.83;53.55;100394.72;5067268;28;20151;-21
2022/01/22 06:12:16;;;;;;;6.43;3.28;;;;;;;-2.77;53.33;100393.41;5067992;28;20107;-21
2022/01/22 06:14:42;;;;;;;7.13;2.67;;;;;;;-2.90;53.30;100371.84;5068371;28;20033;-21
2022/01/22 06:17:08;;;;;;;7.10;3.25;;;;;;;-2.74;53.11;100371.44;5068082;28;20472;-20
2022/01/22 06:19:33;;;;;;;6.70;3.13;;;;;;;-2.81;52.37;100378.94;5068187;28;20079;-22
2022/01/22 06:21:58;;;;;;;5.28;2.33;;;;;;;-2.83;52.66;100373.84;5066521;28;20044;-21
2022/01/22 06:24:24;;;;;;;4.65;1.90;;;;;;;-2.79;52.95;100386.66;5068054;28;20052;-20
2022/01/22 06:26:49;;;;;;;5.28;2.30;;;;;;;-2.68;52.86;100384.81;5068072;28;20683;-21
2022/01/22 06:29:15;;;;;;;5.68;2.53;;;;;;;-2.64;53.18;100386.22;5067848;28;20040;-21
2022/01/22 06:31:40;;;;;;;6.43;2.55;;;;;;;-2.69;52.80;100366.69;5067947;28;20419;-21
2022/01/22 06:34:06;;;;;;;8.40;3.10;;;;;;;-2.55;53.07;100376.00;5067558;28;20040;-21
2022/01/22 06:36:31;;;;;;;7.38;3.20;;;;;;;-2.38;52.35;100371.97;5067739;28;20040;-21
2022/01/22 06:39:12;;;;;;;8.75;3.03;;;;;;;-2.38;52.75;100379.81;5067914;28;20033;-21
2022/01/22 06:41:44;;;;;;;9.93;4.10;;;;;;;-2.25;52.64;100369.97;5067968;28;20024;-21
2022/01/22 06:44:20;;;;;;;7.97;3.50;;;;;;;-2.23;52.58;100368.91;5067792;28;20052;-21
2022/01/22 06:46:54;;;;;;;8.70;3.47;;;;;;;-2.15;52.69;100370.03;5067482;28;20082;-21
2022/01/22 06:49:20;;;;;;;7.55;3.25;;;;;;;-2.18;52.62;100346.81;5065895;28;20070;-20
2022/01/22 06:51:45;;;;;;;9.25;2.72;;;;;;;-2.04;52.57;100362.97;5067342;28;20081;-20
2022/01/22 06:54:11;;;;;;;9.70;5.32;;;;;;;-1.95;52.11;100368.38;5067496;28;20896;-21
2022/01/22 06:56:37;;;;;;;9.30;4.18;;;;;;;-1.77;52.23;100373.81;5066063;28;20040;-21
2022/01/22 06:59:03;;;;;;;7.72;3.33;;;;;;;-2.07;52.21;100328.41;5067381;28;20063;-22
2022/01/22 07:01:28;;;;;;;8.18;3.80;;;;;;;-1.80;52.52;100366.22;5067201;28;20032;-21
2022/01/22 07:03:54;;;;;;;7.88;3.75;;;;;;;-1.23;53.36;100376.06;5067226;28;20042;-21
2022/01/22 07:06:20;;;;;;;7.00;3.10;;;;;;;-1.36;51.65;100367.59;5065870;28;20051;-21
2022/01/22 07:08:45;;;;;;;7.20;3.40;;;;;;;-1.45;51.52;100376.25;5065852;28;20029;-21
2022/01/22 07:11:11;;;;;;;6.78;3.38;;;;;;;-1.30;50.88;100377.53;5067140;28;20849;-21
2022/01/22 07:13:37;;;;;;;8.32;3.22;;;;;;;-1.27;50.61;100374.66;5066787;28;20086;-21
2022/01/22 07:16:03;;;;;;;6.93;3.20;;;;;;;-1.43;50.69;100356.00;5066632;28;20125;-22
2022/01/22 07:18:29;;;;;;;6.53;2.83;;;;;;;-1.43;50.96;100363.84;5067341;28;20021;-21
2022/01/22 07:20:55;;;;;;;9.35;4.63;;;;;;;-1.03;50.74;100355.13;5067192;28;20066;-21
2022/01/22 07:26:04;;;;;;;7.03;3.10;;;;;;;-0.81;49.90;100367.13;5066626;28;20057;-21
2022/01/22 07:28:31;;;;;;;10.63;4.68;;;;;;;-0.72;49.45;100376.75;5065426;28;20044;-21
2022/01/22 07:30:59;;;;;;;9.38;4.43;;;;;;;-0.72;49.15;100361.03;5065741;28;20715;-21
2022/01/22 07:33:25;;;;;;;6.38;3.10;;;;;;;-0.89;49.24;100359.97;5067151;28;20032;-21
2022/01/22 07:35:51;;;;;;;5.18;2.55;;;;;;;-0.99;50.04;100364.34;5066602;28;20040;-21
2022/01/22 07:38:16;;;;;;;6.30;3.53;;;;;;;-0.91;49.58;100355.81;5066885;28;20037;-21
2022/01/22 07:40:42;;;;;;;7.95;3.30;;;;;;;-1.14;49.45;100350.84;5067133;28;20040;-21
2022/01/22 07:43:07;;;;;;;6.75;2.90;;;;;;;-1.03;50.70;100345.47;5066488;28;20043;-21
2022/01/22 07:45:33;;;;;;;8.35;3.75;;;;;;;-1.16;49.86;100325.78;5066860;28;20043;-21
2022/01/22 07:47:58;;;;;;;9.07;3.70;;;;;;;-0.99;49.75;100343.41;5066613;28;20036;-21
2022/01/22 07:50:24;;;;;;;9.20;3.55;;;;;;;-0.97;49.82;100349.34;5066781;28;20090;-21
2022/01/22 07:52:49;;;;;;;7.60;3.17;;;;;;;-1.00;50.22;100360.09;5066632;28;20040;-21
2022/01/22 07:55:20;;;;;;;8.85;2.95;;;;;;;-1.26;49.99;100331.81;5066639;28;20527;-20
2022/01/22 07:57:46;;;;;;;4.72;2.67;;;;;;;-1.18;50.29;100343.41;5066318;28;20520;-21
2022/01/22 08:00:12;;;;;;;7.18;3.50;;;;;;;-1.09;51.23;100353.88;5065504;28;20078;-21
2022/01/22 08:02:37;;;;;;;9.20;3.70;;;;;;;-0.93;50.81;100321.91;5066897;28;20028;-21
2022/01/22 08:05:03;;;;;;;9.18;3.83;;;;;;;-0.76;49.75;100340.53;5066689;28;20470;-22
2022/01/22 08:07:29;;;;;;;7.68;3.10;;;;;;;-0.88;50.08;100345.91;5065249;28;20036;-20
2022/01/22 08:09:54;;;;;;;7.15;3.33;;;;;;;-0.88;50.56;100351.16;5066202;28;20054;-21
2022/01/22 08:12:20;;;;;;;9.05;2.83;;;;;;;-0.83;49.47;100348.13;5066275;28;20456;-21
2022/01/22 08:14:45;;;;;;;9.30;2.67;;;;;;;-0.72;50.11;100353.19;5066450;28;20107;-22
2022/01/22 08:17:11;;;;;;;11.85;4.57;;;;;;;-0.42;49.39;100349.59;5066418;28;20047;-21
2022/01/22 08:19:36;;;;;;;15.63;6.47;;;;;;;-0.04;48.77;100341.75;5066557;28;20122;-22
2022/01/22 08:22:02;;;;;;;9.70;2.97;;;;;;;-0.21;48.64;100319.75;5065989;28;20047;-21
2022/01/22 08:24:28;;;;;;;7.22;2.88;;;;;;;-0.08;48.60;100333.38;5066109;28;20417;-20
2022/01/22 08:29:31;;;;;;;6.03;2.63;;;;;;;0.04;49.60;100314.81;5070415;28;20024;-20
2022/01/22 08:32:57;;;;;;;7.25;2.80;;;;;;;0.57;48.27;100335.13;5070224;28;20063;-22
2022/01/22 08:37:29;;;;;;;6.57;2.53;;;;;;;0.43;48.16;100314.63;5070062;28;20043;-22
2022/01/22 08:39:54;;;;;;;6.43;2.50;;;;;;;0.85;48.74;100324.59;5069731;28;20028;-21
2022/01/22 08:42:20;;;;;;;3.80;2.17;;;;;;;0.75;48.74;100314.97;5069971;28;20036;-21
2022/01/22 08:44:46;;;;;;;6.72;2.55;;;;;;;0.57;47.78;100301.84;5069859;28;20024;-21
2022/01/22 08:47:12;;;;;;;7.25;2.13;;;;;;;0.61;48.47;100281.38;5069811;28;20036;-21
2022/01/22 08:49:38;;;;;;;6.18;2.17;;;;;;;0.53;48.15;100278.66;5069366;28;20082;-21
2022/01/22 08:52:09;;;;;;;7.60;3.28;;;;;;;0.57;48.40;100286.09;5069631;28;20036;-21
2022/01/22 08:54:34;;;;;;;10.15;4.72;;;;;;;0.42;48.86;100292.81;5069600;28;20067;-21
2022/01/22 08:57:00;;;;;;;49.42;18.63;;;;;;;0.42;49.91;100260.53;5069797;28;20060;-21
2022/01/22 08:59:25;;;;;;;9.15;5.03;;;;;;;1.02;48.72;100278.28;5069581;28;20714;-21
2022/01/22 09:01:51;;;;;;;8.60;4.18;;;;;;;1.43;47.74;100275.97;5069159;28;20428;-21
2022/01/22 09:04:16;;;;;;;8.25;4.22;;;;;;;1.27;47.73;100276.69;5069213;28;20036;-21
2022/01/22 09:06:42;;;;;;;7.60;4.63;;;;;;;1.09;47.68;100263.59;5069367;28;20071;-21
2022/01/22 09:09:12;;;;;;;6.82;2.70;;;;;;;1.07;47.83;100250.59;5069189;28;20051;-21
2022/01/22 09:11:38;;;;;;;5.45;2.67;;;;;;;0.96;47.19;100232.44;5069345;28;20044;-21
2022/01/22 09:14:05;;;;;;;6.95;2.42;;;;;;;0.89;47.20;100213.03;5067786;28;20028;-21
2022/01/22 09:16:30;;;;;;;5.18;2.55;;;;;;;1.51;48.41;100247.13;5069361;28;20115;-21
2022/01/22 09:19:00;;;;;;;7.30;3.47;;;;;;;1.70;47.72;100251.34;5069275;28;20032;-21
2022/01/22 09:21:26;;;;;;;5.13;2.30;;;;;;;1.82;46.74;100250.09;5067973;28;20295;-21
2022/01/22 09:23:51;;;;;;;5.50;2.88;;;;;;;1.60;47.05;100247.00;5069093;28;20787;-21
2022/01/22 09:26:18;;;;;;;7.53;2.97;;;;;;;1.73;46.37;100251.00;5069029;28;20436;-21
2022/01/22 09:28:46;;;;;;;8.75;3.35;;;;;;;1.84;46.54;100242.88;5067551;28;20060;-21
2022/01/22 09:31:12;;;;;;;8.77;3.08;;;;;;;1.66;46.21;100234.25;5068887;28;20232;-21
2022/01/22 09:33:39;;;;;;;4.65;2.78;;;;;;;1.38;46.16;100234.41;5067507;28;20082;-21
2022/01/22 09:36:04;;;;;;;7.95;2.70;;;;;;;1.65;46.32;100243.09;5068832;28;20039;-21
2022/01/22 09:38:30;;;;;;;7.03;3.10;;;;;;;1.46;46.02;100213.41;5068823;28;20032;-21
2022/01/22 09:40:55;;;;;;;8.50;3.47;;;;;;;1.50;47.25;100221.81;5068966;28;20040;-21
2022/01/22 09:43:21;;;;;;;6.07;2.60;;;;;;;1.69;46.75;100218.94;5067314;28;20032;-21
2022/01/22 09:45:49;;;;;;;4.38;2.05;;;;;;;1.95;44.68;100202.31;5068144;28;20032;-24
2022/01/22 09:48:14;;;;;;;3.85;1.75;;;;;;;2.21;44.46;100189.06;5067339;28;20035;-21
2022/01/22 09:50:40;;;;;;;5.80;2.30;;;;;;;2.53;44.45;100176.91;5068578;28;20040;-21
2022/01/22 09:53:05;;;;;;;4.43;1.55;;;;;;;2.11;42.53;100133.13;5068620;28;20110;-21
2022/01/22 09:55:31;;;;;;;5.18;1.85;;;;;;;1.71;42.92;100180.19;5068261;28;20113;-21
2022/01/22 09:57:58;;;;;;;7.70;2.33;;;;;;;1.57;43.60;100155.34;5067988;28;20029;-21
2022/01/22 10:00:25;;;;;;;5.05;2.45;;;;;;;2.12;44.31;100168.97;5066966;28;20028;-21
2022/01/22 10:02:54;;;;;;;10.25;3.45;;;;;;;2.12;42.83;100153.19;5068035;28;20035;-22
2022/01/22 10:05:37;;;;;;;5.97;2.65;;;;;;;2.67;42.86;100167.53;5068679;28;20939;-20
2022/01/22 10:08:18;;;;;;;6.78;2.50;;;;;;;2.71;40.93;100182.03;5068153;28;20111;-22
2022/01/22 10:10:43;;;;;;;6.93;1.85;;;;;;;2.57;40.82;100165.06;5068194;28;20407;-21
2022/01/22 10:13:09;;;;;;;3.45;1.90;;;;;;;2.47;40.38;100174.94;5067788;28;20635;-21
2022/01/22 10:15:39;;;;;;;10.23;2.15;;;;;;;2.36;41.17;100178.72;5066809;28;20043;-21
2022/01/22 10:18:05;;;;;;;6.93;2.30;;;;;;;2.49;40.19;100165.06;5070017;28;20032;-21
2022/01/22 10:20:38;;;;;;;6.40;3.33;;;;;;;2.44;41.31;100143.69;5076279;28;20533;-21
2022/01/22 10:23:03;;;;;;;8.65;2.38;;;;;;;3.08;39.72;100157.78;5068054;28;20036;-21
2022/01/22 10:25:35;;;;;;;6.88;2.33;;;;;;;3.27;38.91;100150.47;5067719;28;20057;-21
2022/01/22 10:28:09;;;;;;;13.70;5.85;;;;;;;3.52;38.94;100154.69;5067600;28;20110;-22
2022/01/22 10:30:40;;;;;;;8.68;3.58;;;;;;;3.39;38.09;100146.50;5067845;28;20060;-21
2022/01/22 10:33:33;;;;;;;16.45;7.53;;;;;;;3.35;39.32;100153.09;5067754;28;20023;-21
2022/01/22 10:36:08;;;;;;;24.20;11.02;;;;;;;3.55;36.90;100141.16;5067193;28;20108;-20
2022/01/22 10:38:43;;;;;;;13.20;5.60;;;;;;;3.06;37.18;100137.88;5067832;28;20051;-21
2022/01/22 10:41:08;;;;;;;16.15;7.50;;;;;;;3.26;39.48;100138.31;5067479;28;20036;-22
2022/01/22 10:43:41;;;;;;;8.05;4.55;;;;;;;2.80;40.15;100115.22;5067550;28;20035;-21
2022/01/22 10:46:11;;;;;;;12.07;5.22;;;;;;;3.32;40.00;100133.19;5081862;28;20059;-21
2022/01/22 10:48:38;;;;;;;14.50;6.55;;;;;;;3.75;38.62;100127.56;5066614;28;20027;-21
2022/01/22 10:51:14;;;;;;;12.02;4.30;;;;;;;3.80;38.12;100130.50;5067385;28;20103;-25
2022/01/22 10:53:47;;;;;;;4.18;1.92;;;;;;;3.86;38.40;100135.06;5067408;28;20499;-21
2022/01/22 10:56:17;;;;;;;4.00;1.77;;;;;;;3.54;39.45;100131.63;5067203;28;20468;-21
2022/01/22 10:59:07;;;;;;;4.45;2.53;;;;;;;4.01;37.55;100143.09;5067179;28;20489;-21
2022/01/22 11:01:38;;;;;;;6.40;3.30;;;;;;;3.70;39.10;100140.44;5065763;28;20514;-22
2022/01/22 11:04:09;;;;;;;4.60;2.30;;;;;;;3.86;37.46;100127.16;5066822;28;20047;-21
2022/01/22 11:06:35;;;;;;;1.95;1.38;;;;;;;3.93;36.48;100125.50;5067005;28;20125;-21
2022/01/22 11:09:00;;;;;;;3.85;1.90;;;;;;;3.37;38.77;100130.03;5066953;28;20503;-21
2022/01/22 11:11:26;;;;;;;7.28;4.43;;;;;;;3.81;39.81;100116.31;5082072;28;20094;-20
2022/01/22 11:13:51;;;;;;;3.63;1.50;;;;;;;3.15;39.94;100121.88;5066883;28;20040;-20
2022/01/22 11:16:17;;;;;;;3.58;1.70;;;;;;;2.57;39.98;100121.13;5067203;28;20119;-20
2022/01/22 11:18:44;;;;;;;9.43;4.68;;;;;;;2.57;41.04;100102.69;5067008;28;20036;-21
2022/01/22 11:21:10;;;;;;;21.67;11.15;;;;;;;2.66;40.75;100107.97;5065779;28;20506;-21
2022/01/22 11:23:36;;;;;;;6.00;3.20;;;;;;;2.59;39.93;100105.16;5066485;28;20068;-21
2022/01/22 11:26:02;;;;;;;8.77;3.97;;;;;;;2.80;39.54;100113.38;5065202;28;20056;-21
2022/01/22 11:28:27;;;;;;;4.72;1.83;;;;;;;2.66;37.44;100107.97;5082284;28;20551;-21
2022/01/22 11:30:53;;;;;;;3.28;1.50;;;;;;;2.47;38.14;100107.31;5082490;28;20044;-21
2022/01/22 11:33:19;;;;;;;4.30;1.83;;;;;;;2.15;41.04;100095.00;5065505;28;20032;-21
2022/01/22 11:36:26;;;;;;;19.92;10.32;;;;;;;1.94;44.00;100105.97;5082108;28;20025;-23
2022/01/22 11:38:56;;;;;;;14.18;8.48;;;;;;;2.29;42.21;100104.88;5061639;28;20040;-21
2022/01/22 11:41:23;;;;;;;6.03;2.53;;;;;;;2.46;41.81;100094.34;5065820;28;20058;-21
2022/01/22 11:44:03;;;;;;;8.45;3.30;;;;;;;2.25;42.38;100086.91;5065280;28;20115;-21
2022/01/22 11:46:33;;;;;;;6.28;3.00;;;;;;;2.06;41.42;100064.38;5066624;28;20084;-21
2022/01/22 11:49:14;;;;;;;15.00;7.50;;;;;;;2.54;40.53;100081.97;5066299;28;20029;-21
2022/01/22 11:51:44;;;;;;;8.27;3.80;;;;;;;3.35;38.93;100085.41;5066565;28;20121;-21
2022/01/22 11:54:09;;;;;;;4.10;2.05;;;;;;;3.36;36.70;100086.22;5066507;28;20025;-21
2022/01/22 11:56:48;;;;;;;6.72;3.85;;;;;;;2.90;37.05;100091.28;5066547;28;20040;-21
2022/01/22 11:59:21;;;;;;;5.05;2.30;;;;;;;2.69;39.21;100084.75;5065069;28;20032;-21
2022/01/22 12:01:50;;;;;;;5.57;2.42;;;;;;;3.20;37.64;100077.38;5070633;28;20404;-21
2022/01/22 12:04:17;;;;;;;6.20;3.15;;;;;;;4.10;36.39;100069.97;5070420;28;20111;-21
2022/01/22 12:07:03;;;;;;;4.90;2.47;;;;;;;4.55;35.03;100074.38;5069174;28;20510;-21
2022/01/22 12:15:30;;;;;;;5.90;2.45;;;;;;;4.14;36.01;100073.88;5070162;28;20035;-21
2022/01/22 12:18:02;;;;;;;;;;;;;;;4.83;33.81;100087.78;5070302;28;20032;-21
2022/01/22 12:23:11;;;;;;;3.28;1.90;;;;;;;5.30;33.88;100079.69;5070085;28;20508;-22
2022/01/22 12:25:40;;;;;;;3.47;2.00;;;;;;;4.87;33.61;100074.25;5069705;28;20059;-22
2022/01/22 12:28:09;;;;;;;6.80;2.63;;;;;;;5.40;33.93;100059.88;5069744;28;20115;-21
2022/01/22 12:30:42;;;;;;;3.47;1.77;;;;;;;5.14;33.04;100043.69;5069750;28;20033;-21
2022/01/22 12:33:12;;;;;;;5.65;2.50;;;;;;;5.57;32.76;100051.75;5070052;28;20119;-20
2022/01/22 12:35:42;;;;;;;5.70;2.45;;;;;;;5.68;32.45;100058.34;5069847;28;20412;-22
2022/01/22 12:41:46;;;;;;;5.70;2.67;;;;;;;3.68;34.71;100050.13;5036451;28;20040;-22
2022/01/22 12:44:28;;;;;;;14.02;5.75;;;;;;;5.13;33.26;100042.88;5069150;28;20386;-22
2022/01/22 12:46:59;;;;;;;17.10;7.00;;;;;;;4.72;34.74;100043.34;5068209;28;20036;-21
2022/01/22 12:49:26;;;;;;;29.13;14.27;;;;;;;5.66;32.76;100025.97;5069137;28;20397;-21
2022/01/22 12:52:00;;;;;;;16.02;8.00;;;;;;;5.60;32.91;100052.19;5069107;28;20086;-21
2022/01/22 12:54:39;;;;;;;17.40;8.05;;;;;;;5.22;33.42;100051.53;5069729;28;20095;-22
2022/01/22 12:57:10;;;;;;;15.40;9.82;;;;;;;5.13;33.77;100049.97;5069739;28;20036;-21
2022/01/22 12:59:54;;;;;;;9.45;5.30;;;;;;;4.52;33.78;100060.72;5069154;28;20032;-21
2022/01/22 13:02:20;;;;;;;6.25;2.75;;;;;;;4.63;33.70;100036.50;5069458;28;20029;-21
2022/01/22 13:04:58;;;;;;;7.85;4.47;;;;;;;5.58;31.93;100040.97;5068183;28;20512;-21
2022/01/22 13:07:25;;;;;;;;;;;;;;;6.11;31.79;100045.16;5068726;28;20515;-20
2022/01/22 13:09:54;;;;;;;6.18;3.33;;;;;;;6.92;29.99;100047.41;5068693;28;19912;-21
2022/01/22 13:12:20;;;;;;;6.13;3.67;;;;;;;6.56;30.30;100043.94;5068051;28;20062;-21
2022/01/22 13:14:45;;;;;;;4.15;2.03;;;;;;;6.55;29.95;100046.75;5068789;28;20028;-21
2022/01/22 13:17:11;;;;;;;3.97;2.35;;;;;;;6.68;29.44;100046.88;5067255;28;20036;-21
2022/01/22 13:19:37;;;;;;;5.55;2.45;;;;;;;7.20;28.57;100061.44;5067257;28;20035;-22